createdAt,value
2023-02-19T00:00:44.417Z,81.74
2023-02-19T00:03:16.948Z,82.45
2023-02-19T00:05:49.553Z,81.63
2023-02-19T00:08:22.179Z,82.32
2023-02-19T00:10:54.731Z,81.92
2023-02-19T00:13:27.356Z,81.86
2023-02-19T00:16:07.356Z,82.71
2023-02-19T00:18:40.405Z,83.26
2023-02-19T00:21:13.727Z,82.85
2023-02-19T00:23:55.583Z,82.39
2023-02-19T00:26:29.344Z,82.39
2023-02-19T00:29:02.467Z,82.43
2023-02-19T00:31:36.366Z,82.16
2023-02-19T00:34:11.058Z,81.66
2023-02-19T00:36:44.223Z,81.62
2023-02-19T00:39:18.506Z,81.31
2023-02-19T00:41:51.214Z,81.72
2023-02-19T00:44:23.786Z,81.63
2023-02-19T00:46:56.301Z,81.82
2023-02-19T00:49:28.841Z,81.42
2023-02-19T00:52:01.508Z,80.87
2023-02-19T00:54:34.074Z,81.23
2023-02-19T00:57:06.585Z,80.74
2023-02-19T00:59:39.143Z,80.67
2023-02-19T01:02:11.686Z,80.83
2023-02-19T01:04:44.284Z,80.48
2023-02-19T01:07:16.840Z,80.72
2023-02-19T01:09:49.429Z,80.76
2023-02-19T01:12:24.279Z,80.91
2023-02-19T01:14:57.640Z,80.73
2023-02-19T01:17:30.206Z,81.14
2023-02-19T01:20:02.803Z,81.09
2023-02-19T01:22:35.319Z,80.82
2023-02-19T01:25:08.104Z,80.96
2023-02-19T01:27:40.693Z,80.86
2023-02-19T01:30:13.721Z,80.79
2023-02-19T01:32:46.228Z,80.67
2023-02-19T01:35:18.800Z,81.40
2023-02-19T01:37:51.353Z,80.55
2023-02-19T01:40:24.206Z,80.25
2023-02-19T01:42:56.773Z,80.95
2023-02-19T01:45:38.231Z,80.68
2023-02-19T01:48:38.015Z,81.08
2023-02-19T01:51:18.830Z,81.05
2023-02-19T01:54:00.306Z,81.21
2023-02-19T01:56:38.301Z,81.15
2023-02-19T01:59:12.075Z,80.66
2023-02-19T02:01:45.686Z,80.74
2023-02-19T02:04:19.342Z,79.88
2023-02-19T02:06:56.414Z,80.48
2023-02-19T02:09:50.046Z,80.51
2023-02-19T02:12:22.603Z,80.61
2023-02-19T02:14:55.112Z,80.55
2023-02-19T02:17:55.354Z,80.70
2023-02-19T02:21:15.867Z,80.40
2023-02-19T02:24:21.665Z,79.67
2023-02-19T02:27:16.096Z,80.06
2023-02-19T02:30:35.362Z,79.95
2023-02-19T02:33:26.535Z,80.67
2023-02-19T02:36:27.053Z,80.30
2023-02-19T02:39:05.092Z,80.69
2023-02-19T02:41:45.088Z,80.90
2023-02-19T02:44:17.645Z,81.52
2023-02-19T02:46:50.257Z,81.17
2023-02-19T02:49:24.643Z,81.56
2023-02-19T02:52:19.812Z,81.42
2023-02-19T02:55:04.593Z,80.95
2023-02-19T02:57:37.159Z,81.15
2023-02-19T03:00:10.561Z,81.80
2023-02-19T03:02:44.246Z,81.98
2023-02-19T03:05:42.594Z,82.78
2023-02-19T03:08:47.782Z,83.72
2023-02-19T03:11:39.600Z,84.71
2023-02-19T03:15:07.241Z,84.81
2023-02-19T03:18:11.824Z,85.90
2023-02-19T03:20:50.725Z,85.84
2023-02-19T03:23:49.061Z,85.71
2023-02-19T03:26:24.610Z,85.47
2023-02-19T03:29:18.911Z,84.74
2023-02-19T03:32:01.379Z,84.74
2023-02-19T03:35:03.485Z,84.95
2023-02-19T03:37:41.591Z,84.72
2023-02-19T03:40:15.483Z,83.89
2023-02-19T03:43:19.601Z,83.31
2023-02-19T03:46:23.444Z,83.11
2023-02-19T03:49:09.929Z,82.84
2023-02-19T03:52:02.759Z,82.52
2023-02-19T03:54:54.718Z,82.99
2023-02-19T03:57:54.349Z,83.59
2023-02-19T04:00:41.588Z,83.70
2023-02-19T04:03:48.041Z,83.42
2023-02-19T04:06:30.294Z,83.32
2023-02-19T04:09:09.246Z,84.22
2023-02-19T04:11:42.789Z,84.32
2023-02-19T04:14:23.611Z,84.23
2023-02-19T04:17:05.402Z,84.25
2023-02-19T04:19:42.137Z,83.64
2023-02-19T04:22:17.652Z,83.06
2023-02-19T04:24:54.079Z,83.21
2023-02-19T04:27:26.933Z,82.68
2023-02-19T04:29:59.970Z,82.67
2023-02-19T04:32:32.764Z,82.30
2023-02-19T04:35:05.767Z,82.47
2023-02-19T04:37:38.334Z,83.17
2023-02-19T04:40:11.504Z,83.89
2023-02-19T04:42:44.132Z,83.65
2023-02-19T04:45:16.820Z,84.34
2023-02-19T04:47:49.485Z,84.90
2023-02-19T04:50:23.221Z,85.68
2023-02-19T04:52:55.858Z,86.18
2023-02-19T04:55:28.656Z,86.30
2023-02-19T04:58:01.241Z,86.54
2023-02-19T05:00:34.116Z,86.59
2023-02-19T05:03:06.795Z,86.51
2023-02-19T05:05:39.329Z,86.89
2023-02-19T05:08:11.838Z,87.28
2023-02-19T05:10:44.376Z,86.95
2023-02-19T05:13:16.981Z,87.44
2023-02-19T05:16:04.847Z,87.38
2023-02-19T05:18:37.475Z,87.28
2023-02-19T05:21:12.118Z,87.66
2023-02-19T05:23:44.855Z,87.25
2023-02-19T05:26:21.598Z,87.08
2023-02-19T05:28:54.617Z,87.65
2023-02-19T05:31:27.349Z,87.40
2023-02-19T05:33:59.852Z,87.51
2023-02-19T05:36:32.644Z,87.13
2023-02-19T05:39:06.293Z,87.33
2023-02-19T05:41:39.093Z,87.31
2023-02-19T05:44:11.708Z,87.15
2023-02-19T05:46:44.284Z,87.50
2023-02-19T05:49:17.007Z,87.28
2023-02-19T05:51:52.522Z,87.81
2023-02-19T05:54:25.079Z,88.22
2023-02-19T05:56:58.369Z,87.46
2023-02-19T05:59:31.659Z,87.61
2023-02-19T06:02:04.218Z,88.40
2023-02-19T06:04:36.816Z,87.83
2023-02-19T06:07:09.479Z,88.16
2023-02-19T06:09:42.098Z,87.67
2023-02-19T06:12:14.603Z,88.34
2023-02-19T06:14:48.884Z,88.11
2023-02-19T06:17:21.459Z,87.69
2023-02-19T06:19:53.941Z,87.40
2023-02-19T06:22:27.133Z,86.97
2023-02-19T06:24:59.703Z,86.77
2023-02-19T06:27:32.265Z,86.75
2023-02-19T06:30:05.318Z,86.31
2023-02-19T06:32:38.100Z,86.42
2023-02-19T06:35:10.627Z,85.98
2023-02-19T06:37:46.188Z,85.18
2023-02-19T06:40:19.105Z,85.68
2023-02-19T06:42:51.728Z,85.48
2023-02-19T06:45:24.341Z,84.91
2023-02-19T06:47:56.893Z,84.83
2023-02-19T06:50:29.413Z,84.61
2023-02-19T06:53:03.140Z,84.69
2023-02-19T06:55:35.697Z,84.45
2023-02-19T06:58:08.242Z,83.90
2023-02-19T07:00:40.797Z,84.32
2023-02-19T07:03:13.363Z,83.53
2023-02-19T07:05:46.071Z,84.11
2023-02-19T07:08:18.760Z,83.70
2023-02-19T07:10:57.190Z,83.71
2023-02-19T07:13:29.787Z,83.67
2023-02-19T07:16:07.931Z,84.02
2023-02-19T07:18:40.948Z,83.55
2023-02-19T07:21:15.469Z,84.86
2023-02-19T07:23:48.056Z,84.54
2023-02-19T07:26:22.273Z,86.02
2023-02-19T07:28:54.844Z,87.02
2023-02-19T07:31:28.733Z,88.28
2023-02-19T07:34:01.363Z,87.97
2023-02-19T07:36:33.889Z,89.37
2023-02-19T07:39:08.022Z,89.93
2023-02-19T07:41:41.785Z,89.73
2023-02-19T07:44:16.422Z,90.36
2023-02-19T07:46:48.995Z,90.44
2023-02-19T07:49:21.584Z,91.14
2023-02-19T07:51:54.208Z,91.67
2023-02-19T07:54:26.840Z,91.06
2023-02-19T07:56:59.685Z,91.25
2023-02-19T07:59:32.358Z,90.80
2023-02-19T08:02:23.843Z,90.93
2023-02-19T08:04:56.392Z,90.95
2023-02-19T08:07:34.606Z,91.15
2023-02-19T08:10:26.379Z,90.55
2023-02-19T08:13:19.716Z,90.95
2023-02-19T08:16:18.343Z,90.71
2023-02-19T08:18:52.906Z,90.39
2023-02-19T08:21:25.604Z,90.22
2023-02-19T08:23:58.305Z,90.21
2023-02-19T08:26:30.902Z,90.12
2023-02-19T08:29:05.446Z,89.46
2023-02-19T08:31:38.356Z,89.73
2023-02-19T08:34:10.965Z,89.94
2023-02-19T08:36:44.147Z,89.93
2023-02-19T08:39:16.759Z,89.18
2023-02-19T08:41:49.603Z,88.86
2023-02-19T08:44:22.155Z,88.51
2023-02-19T08:46:54.660Z,88.04
2023-02-19T08:49:27.810Z,88.16
2023-02-19T08:52:00.433Z,87.62
2023-02-19T08:54:33.069Z,86.91
2023-02-19T08:57:06.241Z,86.20
2023-02-19T08:59:38.764Z,86.54
2023-02-19T09:02:12.673Z,86.58
2023-02-19T09:04:45.181Z,86.02
2023-02-19T09:07:18.239Z,86.69
2023-02-19T09:09:50.734Z,85.88
2023-02-19T09:12:23.343Z,85.98
2023-02-19T09:14:55.958Z,85.52
2023-02-19T09:17:28.541Z,85.42
2023-02-19T09:20:01.204Z,85.32
2023-02-19T09:22:33.729Z,85.59
2023-02-19T09:25:06.390Z,85.46
2023-02-19T09:27:38.987Z,85.81
2023-02-19T09:30:11.730Z,84.87
2023-02-19T09:32:44.272Z,84.54
2023-02-19T09:35:16.873Z,84.16
2023-02-19T09:37:49.396Z,83.51
2023-02-19T09:40:22.474Z,83.61
2023-02-19T09:42:55.277Z,83.32
2023-02-19T09:45:27.947Z,82.98
2023-02-19T09:48:00.571Z,82.41
2023-02-19T09:50:45.566Z,82.62
2023-02-19T09:53:27.247Z,82.09
2023-02-19T09:56:01.406Z,82.78
2023-02-19T09:58:57.084Z,82.28
2023-02-19T10:01:38.057Z,82.41
2023-02-19T10:04:11.437Z,83.01
2023-02-19T10:06:44.508Z,82.47
2023-02-19T10:09:26.952Z,82.11
2023-02-19T10:12:00.409Z,81.70
2023-02-19T10:14:40.651Z,81.56
2023-02-19T10:17:29.543Z,81.30
2023-02-19T10:20:05.356Z,80.32
2023-02-19T10:22:38.269Z,80.88
2023-02-19T10:25:17.492Z,80.81
2023-02-19T10:27:50.284Z,81.18
2023-02-19T10:30:28.515Z,81.12
2023-02-19T10:33:12.423Z,80.75
2023-02-19T10:36:21.764Z,81.84
2023-02-19T10:38:55.220Z,81.22
2023-02-19T10:41:28.905Z,79.96
2023-02-19T10:44:21.511Z,80.12
2023-02-19T10:46:59.870Z,80.33
2023-02-19T10:49:40.887Z,80.60
2023-02-19T10:52:21.022Z,81.23
2023-02-19T10:55:17.442Z,80.68
2023-02-19T10:57:50.629Z,80.34
2023-02-19T11:00:30.599Z,78.81
2023-02-19T11:03:20.540Z,79.32
2023-02-19T11:06:04.772Z,78.65
2023-02-19T11:08:59.051Z,78.88
2023-02-19T11:11:40.389Z,78.83
2023-02-19T11:14:22.648Z,79.31
2023-02-19T11:16:59.328Z,80.60
2023-02-19T11:19:40.289Z,79.94
2023-02-19T11:22:35.432Z,79.28
2023-02-19T11:25:21.913Z,78.13
2023-02-19T11:28:07.505Z,77.48
2023-02-19T11:30:45.692Z,76.58
2023-02-19T11:33:22.170Z,76.52
2023-02-19T11:36:21.526Z,76.49
2023-02-19T11:38:56.588Z,76.27
2023-02-19T11:42:20.252Z,75.46
2023-02-19T11:45:46.178Z,75.58
2023-02-19T11:48:55.946Z,74.44
2023-02-19T11:51:35.888Z,73.93
2023-02-19T11:54:26.500Z,73.54
2023-02-19T11:57:31.473Z,73.36
2023-02-19T12:00:17.886Z,72.32
2023-02-19T12:03:35.572Z,71.97
2023-02-19T12:06:55.516Z,72.27
2023-02-19T12:10:28.316Z,71.60
2023-02-19T12:13:54.987Z,71.69
2023-02-19T12:16:40.794Z,71.91
2023-02-19T12:19:34.474Z,70.88
2023-02-19T12:22:29.567Z,70.92
2023-02-19T12:25:28.992Z,70.84
2023-02-19T12:28:10.536Z,70.58
2023-02-19T12:31:09.052Z,70.92
2023-02-19T12:34:34.819Z,70.57
2023-02-19T12:37:39.771Z,70.84
2023-02-19T12:40:49.740Z,71.52
2023-02-19T12:43:24.164Z,70.30
2023-02-19T12:46:08.238Z,69.67
2023-02-19T12:48:53.873Z,70.22
2023-02-19T12:51:34.104Z,69.67
2023-02-19T12:54:30.764Z,70.96
2023-02-19T12:57:13.572Z,72.21
2023-02-19T13:00:23.068Z,71.98
2023-02-19T13:03:09.639Z,72.34
2023-02-19T13:06:01.749Z,71.74
2023-02-19T13:09:07.486Z,70.57
2023-02-19T13:12:08.716Z,71.52
2023-02-19T13:14:52.780Z,71.13
2023-02-19T13:17:38.504Z,71.27
2023-02-19T13:20:25.119Z,71.05
2023-02-19T13:23:32.011Z,70.04
2023-02-19T13:26:41.218Z,69.65
2023-02-19T13:29:53.354Z,70.37
2023-02-19T13:33:09.879Z,70.38
2023-02-19T13:36:08.247Z,70.80
2023-02-19T13:38:45.990Z,71.38
2023-02-19T13:41:41.971Z,71.35
2023-02-19T13:44:27.037Z,72.37
2023-02-19T13:47:00.887Z,73.02
2023-02-19T13:49:36.203Z,74.23
2023-02-19T13:52:30.485Z,73.80
2023-02-19T13:55:44.177Z,74.76
2023-02-19T13:58:38.910Z,74.61
2023-02-19T14:01:14.097Z,74.80
2023-02-19T14:04:07.179Z,75.07
2023-02-19T14:07:04.691Z,76.51
2023-02-19T14:09:37.275Z,76.80
2023-02-19T14:12:10.134Z,76.68
2023-02-19T14:14:48.889Z,77.74
2023-02-19T14:17:42.504Z,77.90
2023-02-19T14:20:14.911Z,78.13
2023-02-19T14:22:47.649Z,78.77
2023-02-19T14:25:45.779Z,78.76
2023-02-19T14:28:30.641Z,79.60
2023-02-19T14:31:11.871Z,79.17
2023-02-19T14:33:49.695Z,79.23
2023-02-19T14:36:48.690Z,78.70
2023-02-19T14:39:35.119Z,78.70
2023-02-19T14:42:32.418Z,78.30
2023-02-19T14:45:07.978Z,77.77
2023-02-19T14:47:41.756Z,78.49
2023-02-19T14:50:29.299Z,77.99
2023-02-19T14:53:07.298Z,78.49
2023-02-19T14:55:43.820Z,78.90
2023-02-19T14:58:28.674Z,78.52
2023-02-19T15:01:01.311Z,78.07
2023-02-19T15:03:37.552Z,77.83
2023-02-19T15:06:19.476Z,78.42
2023-02-19T15:09:00.179Z,77.43
2023-02-19T15:11:35.298Z,77.79
2023-02-19T15:14:20.506Z,77.98
2023-02-19T15:17:01.195Z,76.78
2023-02-19T15:19:39.507Z,77.08
2023-02-19T15:22:24.577Z,76.87
2023-02-19T15:25:00.459Z,76.18
2023-02-19T15:27:34.346Z,76.43
2023-02-19T15:30:27.463Z,75.72
2023-02-19T15:33:00.698Z,75.63
2023-02-19T15:35:33.469Z,76.04
2023-02-19T15:38:11.436Z,76.21
2023-02-19T15:40:49.060Z,76.14
2023-02-19T15:43:29.709Z,76.09
2023-02-19T15:46:18.104Z,76.78
2023-02-19T15:49:07.910Z,76.90
2023-02-19T15:51:59.536Z,77.32
2023-02-19T15:54:42.235Z,77.88
2023-02-19T15:57:25.299Z,77.64
2023-02-19T16:00:26.722Z,78.56
2023-02-19T16:02:59.644Z,79.02
2023-02-19T16:05:39.293Z,80.70
2023-02-19T16:08:11.958Z,80.95
2023-02-19T16:11:22.927Z,81.23
2023-02-19T16:14:34.226Z,81.57
2023-02-19T16:17:09.801Z,82.27
2023-02-19T16:19:56.738Z,82.82
2023-02-19T16:22:41.847Z,82.78
2023-02-19T16:25:36.040Z,82.70
2023-02-19T16:28:18.627Z,82.92
2023-02-19T16:30:58.457Z,84.38
2023-02-19T16:33:34.816Z,84.92
2023-02-19T16:36:33.437Z,85.50
2023-02-19T16:39:09.304Z,86.05
2023-02-19T16:41:47.829Z,85.94
2023-02-19T16:44:30.892Z,85.39
2023-02-19T16:47:15.221Z,86.15
2023-02-19T16:49:47.820Z,85.74
2023-02-19T16:52:20.383Z,86.14
2023-02-19T16:54:53.250Z,85.66
2023-02-19T16:57:25.817Z,85.04
2023-02-19T16:59:58.394Z,84.91
2023-02-19T17:02:33.336Z,84.53
2023-02-19T17:05:05.946Z,84.17
2023-02-19T17:07:38.479Z,82.75
2023-02-19T17:10:17.812Z,82.14
2023-02-19T17:12:55.537Z,81.07
2023-02-19T17:15:28.140Z,80.07
2023-02-19T17:18:00.626Z,79.63
2023-02-19T17:20:36.207Z,79.12
2023-02-19T17:23:08.753Z,79.29
2023-02-19T17:25:41.344Z,78.88
2023-02-19T17:28:13.895Z,78.97
2023-02-19T17:30:46.451Z,78.27
2023-02-19T17:33:19.005Z,79.29
2023-02-19T17:35:51.595Z,78.67
2023-02-19T17:38:24.146Z,78.68
2023-02-19T17:40:56.720Z,78.94
2023-02-19T17:43:29.257Z,79.00
2023-02-19T17:46:01.979Z,78.83
2023-02-19T17:48:34.560Z,78.83
2023-02-19T17:51:07.565Z,77.95
2023-02-19T17:53:40.290Z,79.14
2023-02-19T17:56:23.577Z,79.55
2023-02-19T17:58:58.412Z,79.86
2023-02-19T18:01:31.036Z,79.62
2023-02-19T18:04:04.131Z,80.09
2023-02-19T18:06:36.722Z,79.50
2023-02-19T18:09:11.484Z,78.88
2023-02-19T18:11:46.469Z,79.49
2023-02-19T18:14:19.147Z,79.87
2023-02-19T18:16:51.883Z,79.50
2023-02-19T18:19:26.065Z,79.48
2023-02-19T18:21:58.601Z,78.93
2023-02-19T18:24:31.154Z,79.47
2023-02-19T18:27:04.310Z,78.66
2023-02-19T18:29:36.947Z,79.69
2023-02-19T18:32:09.817Z,79.60
2023-02-19T18:34:42.436Z,78.82
2023-02-19T18:37:14.976Z,78.83
2023-02-19T18:39:47.904Z,79.60
2023-02-19T18:42:22.544Z,79.52
2023-02-19T18:44:56.373Z,79.37
2023-02-19T18:47:28.999Z,79.57
2023-02-19T18:50:01.719Z,79.47
2023-02-19T18:52:34.333Z,80.17
2023-02-19T18:55:07.737Z,80.25
2023-02-19T18:57:40.377Z,80.64
2023-02-19T19:00:20.745Z,80.72
2023-02-19T19:03:00.140Z,80.02
2023-02-19T19:05:32.729Z,80.57
2023-02-19T19:08:05.337Z,80.14
2023-02-19T19:10:37.893Z,80.43
2023-02-19T19:13:10.584Z,81.31
2023-02-19T19:15:45.012Z,81.48
2023-02-19T19:18:18.316Z,81.10
2023-02-19T19:20:50.973Z,81.02
2023-02-19T19:23:23.771Z,81.17
2023-02-19T19:25:56.741Z,81.27
2023-02-19T19:28:31.249Z,80.86
2023-02-19T19:31:04.620Z,81.29
2023-02-19T19:33:37.257Z,80.72
2023-02-19T19:36:11.531Z,80.07
2023-02-19T19:38:44.137Z,80.49
2023-02-19T19:41:20.071Z,80.34
2023-02-19T19:43:52.664Z,80.57
2023-02-19T19:46:25.259Z,80.12
2023-02-19T19:48:57.864Z,80.58
2023-02-19T19:51:35.473Z,80.63
2023-02-19T19:54:08.462Z,80.68
2023-02-19T19:56:47.155Z,80.43
2023-02-19T19:59:19.996Z,80.99
2023-02-19T20:02:01.672Z,80.70
2023-02-19T20:04:34.548Z,80.79
2023-02-19T20:07:07.153Z,80.85
2023-02-19T20:09:39.692Z,81.41
2023-02-19T20:12:12.718Z,81.82
2023-02-19T20:14:46.731Z,82.00
2023-02-19T20:17:19.312Z,82.47
2023-02-19T20:19:51.822Z,81.81
2023-02-19T20:22:24.758Z,82.03
2023-02-19T20:24:57.563Z,82.28
2023-02-19T20:27:30.163Z,82.40
2023-02-19T20:30:03.468Z,82.12
2023-02-19T20:32:36.049Z,81.93
2023-02-19T20:35:08.945Z,82.59
2023-02-19T20:37:41.611Z,82.26
2023-02-19T20:40:18.011Z,82.85
2023-02-19T20:42:50.614Z,82.54
2023-02-19T20:45:23.384Z,83.20
2023-02-19T20:47:56.096Z,82.93
2023-02-19T20:50:28.852Z,83.18
2023-02-19T20:53:01.417Z,83.61
2023-02-19T20:55:34.085Z,83.59
2023-02-19T20:58:09.070Z,83.68
2023-02-19T21:00:41.580Z,83.84
2023-02-19T21:03:14.219Z,83.91
2023-02-19T21:05:47.122Z,84.22
2023-02-19T21:08:19.650Z,84.89
2023-02-19T21:10:52.255Z,85.27
2023-02-19T21:13:24.732Z,85.26
2023-02-19T21:15:57.332Z,85.57
2023-02-19T21:18:30.017Z,85.89
2023-02-19T21:21:02.602Z,86.16
2023-02-19T21:23:35.162Z,86.40
2023-02-19T21:26:08.171Z,86.36
2023-02-19T21:28:40.768Z,86.88
2023-02-19T21:31:13.849Z,86.68
2023-02-19T21:33:46.955Z,86.52
2023-02-19T21:36:19.459Z,87.40
2023-02-19T21:38:52.045Z,87.32
2023-02-19T21:41:28.403Z,87.29
2023-02-19T21:44:01.087Z,87.22
2023-02-19T21:46:33.678Z,87.24
2023-02-19T21:49:06.892Z,87.72
2023-02-19T21:51:42.784Z,87.66
2023-02-19T21:54:21.149Z,87.80
2023-02-19T21:56:54.643Z,88.31
2023-02-19T21:59:27.217Z,88.58
2023-02-19T22:01:59.864Z,88.48
2023-02-19T22:04:32.373Z,88.47
2023-02-19T22:07:04.859Z,89.06
2023-02-19T22:09:38.802Z,88.77
2023-02-19T22:12:11.316Z,88.24
2023-02-19T22:14:44.364Z,88.22
2023-02-19T22:17:17.012Z,88.21
2023-02-19T22:19:49.543Z,88.59
2023-02-19T22:22:22.106Z,88.50
2023-02-19T22:24:54.764Z,87.98
2023-02-19T22:27:29.269Z,88.32
2023-02-19T22:30:01.828Z,88.05
2023-02-19T22:32:34.470Z,87.89
2023-02-19T22:35:07.399Z,88.27
2023-02-19T22:37:39.940Z,87.80
2023-02-19T22:40:12.974Z,87.83
2023-02-19T22:42:45.597Z,87.58
2023-02-19T22:45:18.168Z,88.01
2023-02-19T22:47:55.644Z,88.01
2023-02-19T22:50:28.218Z,87.94
2023-02-19T22:53:00.731Z,88.16
2023-02-19T22:55:33.271Z,88.21
2023-02-19T22:58:05.812Z,88.22
2023-02-19T23:00:38.320Z,88.90
2023-02-19T23:03:10.977Z,88.96
2023-02-19T23:05:43.603Z,88.79
2023-02-19T23:08:16.091Z,88.77
2023-02-19T23:10:49.798Z,89.02
2023-02-19T23:13:22.305Z,88.88
2023-02-19T23:15:54.802Z,88.96
2023-02-19T23:18:27.299Z,88.97
2023-02-19T23:20:59.852Z,89.20
2023-02-19T23:23:32.394Z,88.96
2023-02-19T23:26:04.999Z,89.22
2023-02-19T23:28:40.550Z,89.46
2023-02-19T23:31:14.709Z,88.90
2023-02-19T23:33:47.420Z,88.63
2023-02-19T23:36:21.705Z,88.59
2023-02-19T23:38:54.204Z,88.70
2023-02-19T23:41:26.673Z,88.36
2023-02-19T23:43:59.207Z,87.76
2023-02-19T23:46:33.757Z,87.54
2023-02-19T23:49:06.513Z,87.77
2023-02-19T23:51:39.392Z,87.35
2023-02-19T23:54:12.367Z,87.03
2023-02-19T23:56:44.914Z,86.52
2023-02-19T23:59:17.389Z,86.84
